createdAt,value
2017-10-24T00:00:23.109Z,101184.14
2017-10-24T00:02:50.566Z,101182.02
2017-10-24T00:05:18.077Z,101187.28
2017-10-24T00:07:45.842Z,101186.52
2017-10-24T00:10:13.439Z,101190.28
2017-10-24T00:12:40.885Z,101188.02
2017-10-24T00:15:08.676Z,101182.34
2017-10-24T00:17:36.148Z,101184.49
2017-10-24T00:20:03.634Z,101188.01
2017-10-24T00:22:31.308Z,101183.80
2017-10-24T00:24:58.779Z,101183.24
2017-10-24T00:27:26.290Z,101180.52
2017-10-24T00:29:53.764Z,101186.69
2017-10-24T00:32:21.231Z,101179.73
2017-10-24T00:34:48.669Z,101182.23
2017-10-24T00:37:16.147Z,101182.00
2017-10-24T00:39:43.625Z,101180.90
2017-10-24T00:42:11.117Z,101187.53
2017-10-24T00:44:38.571Z,101192.94
2017-10-24T00:47:06.049Z,101187.55
2017-10-24T00:49:33.517Z,101189.66
2017-10-24T00:52:00.995Z,101189.82
2017-10-24T00:54:28.456Z,101181.40
2017-10-24T00:56:56.022Z,101185.15
2017-10-24T00:59:23.480Z,101182.41
2017-10-24T01:01:51.028Z,101189.91
2017-10-24T01:04:18.583Z,101191.04
2017-10-24T01:06:46.068Z,101194.61
2017-10-24T01:09:13.608Z,101186.11
2017-10-24T01:11:41.091Z,101192.75
2017-10-24T01:14:08.561Z,101193.53
2017-10-24T01:16:36.048Z,101192.56
2017-10-24T01:19:03.533Z,101194.94
2017-10-24T01:21:31.020Z,101193.07
2017-10-24T01:23:58.490Z,101195.31
2017-10-24T01:26:25.977Z,101201.02
2017-10-24T01:28:53.435Z,101200.13
2017-10-24T01:31:20.918Z,101190.81
2017-10-24T01:33:48.391Z,101190.99
2017-10-24T01:36:15.863Z,101197.03
2017-10-24T01:38:43.327Z,101192.77
2017-10-24T01:41:10.861Z,101186.98
2017-10-24T01:43:38.417Z,101192.23
2017-10-24T01:46:05.956Z,101184.62
2017-10-24T01:48:33.463Z,101188.28
2017-10-24T01:51:00.924Z,101192.67
2017-10-24T01:53:28.419Z,101184.95
2017-10-24T01:55:55.883Z,101183.30
2017-10-24T01:58:23.360Z,101173.08
2017-10-24T02:00:50.820Z,101175.77
2017-10-24T02:03:18.313Z,101168.58
2017-10-24T02:05:45.799Z,101165.80
2017-10-24T02:08:13.381Z,101163.03
2017-10-24T02:10:40.845Z,101165.73
2017-10-24T02:13:08.335Z,101168.09
2017-10-24T02:15:35.795Z,101159.63
2017-10-24T02:18:03.276Z,101162.71
2017-10-24T02:20:30.739Z,101159.11
2017-10-24T02:22:58.232Z,101163.52
2017-10-24T02:25:25.708Z,101175.91
2017-10-24T02:27:53.231Z,101174.89
2017-10-24T02:30:20.787Z,101175.47
2017-10-24T02:32:48.263Z,101171.04
2017-10-24T02:35:15.802Z,101164.58
2017-10-24T02:37:43.295Z,101160.08
2017-10-24T02:40:10.773Z,101164.10
2017-10-24T02:42:38.280Z,101168.42
2017-10-24T02:45:05.740Z,101177.32
2017-10-24T02:47:33.228Z,101170.67
2017-10-24T02:50:00.756Z,101168.87
2017-10-24T02:52:28.217Z,101163.48
2017-10-24T02:54:55.724Z,101186.16
2017-10-24T02:57:23.233Z,101185.83
2017-10-24T02:59:50.707Z,101190.06
2017-10-24T03:02:18.169Z,101185.57
2017-10-24T03:04:45.676Z,101182.59
2017-10-24T03:07:13.126Z,101181.19
2017-10-24T03:09:40.608Z,101177.97
2017-10-24T03:12:08.188Z,101181.42
2017-10-24T03:14:35.720Z,101189.67
2017-10-24T03:17:03.168Z,101186.72
2017-10-24T03:19:30.643Z,101189.28
2017-10-24T03:21:58.100Z,101191.48
2017-10-24T03:24:25.580Z,101193.91
2017-10-24T03:26:53.034Z,101194.14
2017-10-24T03:29:20.523Z,101196.58
2017-10-24T03:31:47.972Z,101195.61
2017-10-24T03:34:15.473Z,101183.03
2017-10-24T03:36:42.943Z,101179.37
2017-10-24T03:39:10.420Z,101184.00
2017-10-24T03:41:38.882Z,101191.11
2017-10-24T03:44:06.372Z,101192.06
2017-10-24T03:46:33.890Z,101197.94
2017-10-24T03:49:01.386Z,101204.25
2017-10-24T03:51:28.846Z,101201.74
2017-10-24T03:53:56.311Z,101204.07
2017-10-24T03:56:23.763Z,101197.64
2017-10-24T03:58:51.231Z,101188.24
2017-10-24T04:01:18.723Z,101190.97
2017-10-24T04:03:46.215Z,101193.78
2017-10-24T04:06:13.689Z,101200.03
2017-10-24T04:08:41.172Z,101201.36
2017-10-24T04:11:08.643Z,101201.70
2017-10-24T04:13:36.101Z,101203.41
2017-10-24T04:16:03.597Z,101213.47
2017-10-24T04:18:31.135Z,101204.53
2017-10-24T04:20:58.604Z,101205.03
2017-10-24T04:23:26.057Z,101198.09
2017-10-24T04:25:53.535Z,101193.74
2017-10-24T04:28:20.988Z,101197.23
2017-10-24T04:30:48.467Z,101196.77
2017-10-24T04:33:15.920Z,101197.05
2017-10-24T04:35:43.409Z,101195.91
2017-10-24T04:38:10.860Z,101192.80
2017-10-24T04:40:38.337Z,101193.44
2017-10-24T04:43:05.792Z,101193.92
2017-10-24T04:45:33.284Z,101196.19
2017-10-24T04:48:00.808Z,101187.15
2017-10-24T04:50:28.275Z,101192.42
2017-10-24T04:52:55.732Z,101187.80
2017-10-24T04:55:23.228Z,101200.97
2017-10-24T04:57:50.681Z,101189.36
2017-10-24T05:00:18.244Z,101197.55
2017-10-24T05:02:45.704Z,101199.75
2017-10-24T05:05:13.207Z,101194.39
2017-10-24T05:07:40.666Z,101194.80
2017-10-24T05:10:08.144Z,101199.47
2017-10-24T05:12:35.592Z,101196.64
2017-10-24T05:15:03.077Z,101201.80
2017-10-24T05:17:30.549Z,101200.07
2017-10-24T05:19:58.031Z,101196.61
2017-10-24T05:22:25.479Z,101198.32
2017-10-24T05:24:52.986Z,101197.27
2017-10-24T05:27:20.456Z,101193.66
2017-10-24T05:29:48.813Z,101199.37
2017-10-24T05:32:16.292Z,101197.27
2017-10-24T05:34:43.914Z,101194.39
2017-10-24T05:37:11.366Z,101190.30
2017-10-24T05:39:38.842Z,101184.26
2017-10-24T05:42:06.321Z,101193.09
2017-10-24T05:44:33.780Z,101207.81
2017-10-24T05:47:01.268Z,101203.47
2017-10-24T05:49:28.712Z,101206.82
2017-10-24T05:51:56.265Z,101210.16
2017-10-24T05:54:23.720Z,101211.86
2017-10-24T05:56:51.188Z,101221.73
2017-10-24T05:59:18.643Z,101218.13
2017-10-24T06:01:46.111Z,101222.05
2017-10-24T06:04:13.616Z,101227.78
2017-10-24T06:06:41.085Z,101232.05
2017-10-24T06:09:08.528Z,101230.05
2017-10-24T06:11:36.000Z,101230.88
2017-10-24T06:14:03.536Z,101223.17
2017-10-24T06:16:31.009Z,101218.09
2017-10-24T06:18:58.468Z,101222.73
2017-10-24T06:21:25.944Z,101223.15
2017-10-24T06:23:53.415Z,101223.73
2017-10-24T06:26:20.911Z,101223.61
2017-10-24T06:28:48.368Z,101237.80
2017-10-24T06:31:15.835Z,101236.45
2017-10-24T06:33:43.288Z,101227.92
2017-10-24T06:36:10.852Z,101234.92
2017-10-24T06:38:38.310Z,101240.89
2017-10-24T06:41:05.779Z,101242.63
2017-10-24T06:43:33.243Z,101240.19
2017-10-24T06:46:00.716Z,101237.52
2017-10-24T06:48:28.221Z,101244.61
2017-10-24T06:50:55.731Z,101244.64
2017-10-24T06:53:23.200Z,101244.66
2017-10-24T06:55:50.675Z,101243.94
2017-10-24T06:58:18.128Z,101239.06
2017-10-24T07:00:45.718Z,101242.83
2017-10-24T07:03:13.181Z,101245.35
2017-10-24T07:05:40.637Z,101242.98
2017-10-24T07:08:08.108Z,101241.20
2017-10-24T07:10:35.565Z,101252.48
2017-10-24T07:13:03.061Z,101246.08
2017-10-24T07:15:30.510Z,101251.24
2017-10-24T07:17:57.996Z,101246.99
2017-10-24T07:20:25.445Z,101252.15
2017-10-24T07:22:52.920Z,101252.96
2017-10-24T07:25:20.367Z,101262.14
2017-10-24T07:27:47.836Z,101267.60
2017-10-24T07:30:15.292Z,101268.30
2017-10-24T07:32:42.770Z,101264.52
2017-10-24T07:35:10.219Z,101261.14
2017-10-24T07:37:37.701Z,101260.41
2017-10-24T07:40:05.225Z,101268.98
2017-10-24T07:42:32.726Z,101281.05
2017-10-24T07:45:00.238Z,101290.80
2017-10-24T07:47:27.716Z,101283.42
2017-10-24T07:49:55.184Z,101290.32
2017-10-24T07:52:22.685Z,101288.75
2017-10-24T07:54:50.144Z,101291.78
2017-10-24T07:57:17.626Z,101300.89
2017-10-24T07:59:45.080Z,101296.98
2017-10-24T08:02:13.658Z,101296.27
2017-10-24T08:04:41.116Z,101291.66
2017-10-24T08:07:08.595Z,101277.72
2017-10-24T08:09:36.040Z,101275.58
2017-10-24T08:12:03.557Z,101278.52
2017-10-24T08:14:31.052Z,101274.74
2017-10-24T08:16:58.535Z,101280.34
2017-10-24T08:19:25.992Z,101282.69
2017-10-24T08:21:53.464Z,101284.58
2017-10-24T08:24:20.977Z,101289.31
2017-10-24T08:26:48.455Z,101290.80
2017-10-24T08:29:15.903Z,101284.29
2017-10-24T08:31:43.399Z,101286.96
2017-10-24T08:34:10.862Z,101292.56
2017-10-24T08:36:38.314Z,101286.44
2017-10-24T08:39:05.788Z,101287.29
2017-10-24T08:41:33.246Z,101281.91
2017-10-24T08:44:00.720Z,101289.47
2017-10-24T08:46:28.172Z,101288.25
2017-10-24T08:48:55.647Z,101282.72
2017-10-24T08:51:23.095Z,101284.55
2017-10-24T08:53:50.652Z,101283.23
2017-10-24T08:56:18.099Z,101290.16
2017-10-24T08:58:45.566Z,101291.86
2017-10-24T09:01:27.904Z,101287.83
2017-10-24T09:03:55.404Z,101294.42
2017-10-24T09:06:38.283Z,101291.78
2017-10-24T09:09:12.449Z,101290.87
2017-10-24T09:14:43.604Z,101289.00
2017-10-24T09:17:43.602Z,101288.86
2017-10-24T09:20:11.098Z,101282.60
2017-10-24T09:22:38.668Z,101279.72
2017-10-24T09:25:06.146Z,101277.36
2017-10-24T09:27:33.608Z,101272.62
2017-10-24T09:30:01.101Z,101272.05
2017-10-24T09:32:39.367Z,101272.17
2017-10-24T09:35:06.866Z,101265.91
2017-10-24T09:37:34.328Z,101263.98
2017-10-24T09:40:01.800Z,101261.98
2017-10-24T09:42:29.257Z,101255.09
2017-10-24T09:44:56.745Z,101256.75
2017-10-24T09:47:24.212Z,101255.47
2017-10-24T09:49:57.431Z,101249.55
2017-10-24T09:52:24.888Z,101250.11
2017-10-24T09:54:52.385Z,101250.53
2017-10-24T09:57:19.843Z,101238.82
2017-10-24T09:59:47.310Z,101248.94
2017-10-24T10:02:14.777Z,101249.53
2017-10-24T10:04:42.319Z,101239.84
2017-10-24T10:07:09.823Z,101244.61
2017-10-24T10:09:37.294Z,101254.34
2017-10-24T10:12:04.747Z,101249.74
2017-10-24T10:14:32.269Z,101251.13
2017-10-24T10:16:59.729Z,101256.36
2017-10-24T10:19:27.221Z,101256.23
2017-10-24T10:21:54.737Z,101263.13
2017-10-24T10:24:37.963Z,101257.48
2017-10-24T10:27:05.417Z,101255.94
2017-10-24T10:29:32.919Z,101260.44
2017-10-24T10:32:00.372Z,101260.91
2017-10-24T10:34:27.869Z,101260.22
2017-10-24T10:36:55.335Z,101266.66
2017-10-24T10:39:22.883Z,101265.55
2017-10-24T10:41:50.368Z,101270.48
2017-10-24T10:44:17.904Z,101271.34
2017-10-24T10:46:45.393Z,101266.28
2017-10-24T10:49:12.844Z,101267.56
2017-10-24T10:51:40.333Z,101258.25
2017-10-24T10:54:07.791Z,101256.42
2017-10-24T10:56:35.288Z,101261.13
2017-10-24T10:59:02.739Z,101263.04
2017-10-24T11:01:30.217Z,101261.97
2017-10-24T11:03:57.664Z,101266.75
2017-10-24T11:06:25.131Z,101257.78
2017-10-24T11:08:52.580Z,101259.75
2017-10-24T11:11:20.149Z,101263.25
2017-10-24T11:13:47.679Z,101257.84
2017-10-24T11:16:15.145Z,101263.37
2017-10-24T11:18:42.623Z,101265.06
2017-10-24T11:21:10.105Z,101263.16
2017-10-24T11:23:37.561Z,101253.08
2017-10-24T11:26:05.085Z,101255.84
2017-10-24T11:28:32.542Z,101261.28
2017-10-24T11:31:00.017Z,101255.70
2017-10-24T11:33:27.476Z,101255.59
2017-10-24T11:35:54.958Z,101258.77
2017-10-24T11:38:22.454Z,101258.56
2017-10-24T11:40:49.928Z,101262.56
2017-10-24T11:43:17.384Z,101259.09
2017-10-24T11:45:44.845Z,101264.57
2017-10-24T11:48:12.327Z,101260.48
2017-10-24T11:50:39.815Z,101257.17
2017-10-24T11:53:07.284Z,101245.22
2017-10-24T11:55:34.737Z,101243.94
2017-10-24T11:58:02.224Z,101238.16
2017-10-24T12:00:29.690Z,101235.13
2017-10-24T12:02:57.231Z,101226.59
2017-10-24T12:05:24.784Z,101232.58
2017-10-24T12:07:52.251Z,101242.94
2017-10-24T12:10:19.746Z,101239.47
2017-10-24T12:12:47.224Z,101239.38
2017-10-24T12:15:14.672Z,101241.62
2017-10-24T12:17:42.148Z,101237.75
2017-10-24T12:20:09.628Z,101231.73
2017-10-24T12:22:37.135Z,101234.31
2017-10-24T12:25:04.588Z,101229.73
2017-10-24T12:27:32.101Z,101231.45
2017-10-24T12:29:59.556Z,101222.72
2017-10-24T12:32:27.084Z,101226.75
2017-10-24T12:34:54.539Z,101223.50
2017-10-24T12:37:22.008Z,101215.89
2017-10-24T12:39:49.456Z,101213.50
2017-10-24T12:42:31.828Z,101209.94
2017-10-24T12:45:01.702Z,101211.52
2017-10-24T12:47:29.175Z,101202.61
2017-10-24T12:49:57.563Z,101208.84
2017-10-24T12:52:25.037Z,101203.39
2017-10-24T12:54:52.486Z,101199.89
2017-10-24T12:57:22.514Z,101193.58
2017-10-24T12:59:50.243Z,101195.14
2017-10-24T13:02:17.717Z,101191.62
2017-10-24T13:04:45.221Z,101194.05
2017-10-24T13:07:12.693Z,101195.42
2017-10-24T13:09:40.174Z,101192.89
2017-10-24T13:12:07.652Z,101192.70
2017-10-24T13:14:35.129Z,101196.17
2017-10-24T13:17:02.609Z,101195.30
2017-10-24T13:19:30.093Z,101197.29
2017-10-24T13:21:57.751Z,101196.02
2017-10-24T13:24:25.220Z,101185.00
2017-10-24T13:26:52.688Z,101191.42
2017-10-24T13:29:20.215Z,101191.86
2017-10-24T13:31:47.681Z,101187.75
2017-10-24T13:34:15.230Z,101192.30
2017-10-24T13:36:42.761Z,101190.02
2017-10-24T13:39:10.246Z,101184.78
2017-10-24T13:41:37.698Z,101186.84
2017-10-24T13:44:05.167Z,101182.22
2017-10-24T13:46:32.677Z,101188.92
2017-10-24T13:49:00.124Z,101187.47
2017-10-24T13:51:27.600Z,101192.08
2017-10-24T13:53:55.064Z,101189.05
2017-10-24T13:56:22.544Z,101188.16
2017-10-24T13:58:49.999Z,101192.77
2017-10-24T14:01:17.464Z,101195.36
2017-10-24T14:03:44.921Z,101194.27
2017-10-24T14:09:19.984Z,101190.95
2017-10-24T14:11:47.472Z,101185.56
2017-10-24T14:14:14.937Z,101185.22
2017-10-24T14:16:42.439Z,101187.40
2017-10-24T14:19:09.913Z,101185.56
2017-10-24T14:21:37.407Z,101195.95
2017-10-24T14:24:04.860Z,101197.35
2017-10-24T14:26:32.344Z,101184.24
2017-10-24T14:28:59.925Z,101187.33
2017-10-24T14:31:27.490Z,101184.23
2017-10-24T14:33:54.992Z,101190.82
2017-10-24T14:36:22.469Z,101193.72
2017-10-24T14:38:49.957Z,101203.13
2017-10-24T14:41:17.412Z,101192.25
2017-10-24T14:43:44.978Z,101204.64
2017-10-24T14:46:12.533Z,101197.12
2017-10-24T14:48:40.029Z,101194.55
2017-10-24T14:51:07.495Z,101191.78
2017-10-24T14:53:34.968Z,101184.34
2017-10-24T14:56:02.461Z,101184.89
2017-10-24T14:58:29.973Z,101181.52
2017-10-24T15:00:57.434Z,101183.23
2017-10-24T15:03:24.897Z,101176.54
2017-10-24T15:05:52.381Z,101179.45
2017-10-24T15:08:19.833Z,101178.09
2017-10-24T15:10:47.423Z,101184.62
2017-10-24T15:13:14.937Z,101178.81
2017-10-24T15:15:42.429Z,101189.48
2017-10-24T15:18:09.982Z,101188.58
2017-10-24T15:20:37.465Z,101192.92
2017-10-24T15:23:04.924Z,101188.31
2017-10-24T15:25:32.397Z,101180.42
2017-10-24T15:27:59.865Z,101186.80
2017-10-24T15:30:27.347Z,101182.28
2017-10-24T15:32:54.807Z,101179.98
2017-10-24T15:35:22.260Z,101180.53
2017-10-24T15:37:49.740Z,101179.77
2017-10-24T15:40:17.195Z,101182.60
2017-10-24T15:42:44.745Z,101181.09
2017-10-24T15:45:12.225Z,101185.89
2017-10-24T15:47:39.717Z,101186.83
2017-10-24T15:50:07.174Z,101185.92
2017-10-24T15:52:34.656Z,101186.25
2017-10-24T15:55:02.112Z,101181.12
2017-10-24T15:57:29.708Z,101191.64
2017-10-24T15:59:57.252Z,101192.75
2017-10-24T16:02:24.739Z,101183.63
2017-10-24T16:04:52.287Z,101187.28
2017-10-24T16:07:19.741Z,101189.48
2017-10-24T16:09:47.227Z,101191.02
2017-10-24T16:12:14.949Z,101191.72
2017-10-24T16:14:42.428Z,101194.96
2017-10-24T16:17:09.876Z,101181.82
2017-10-24T16:19:37.402Z,101195.60
2017-10-24T16:22:04.848Z,101193.27
2017-10-24T16:24:32.317Z,101195.17
2017-10-24T16:26:59.789Z,101194.13
2017-10-24T16:29:27.275Z,101195.81
2017-10-24T16:31:54.746Z,101200.59
2017-10-24T16:34:22.228Z,101203.00
2017-10-24T16:36:49.676Z,101208.01
2017-10-24T16:39:17.186Z,101210.69
2017-10-24T16:41:44.639Z,101212.30
2017-10-24T16:44:12.205Z,101206.92
2017-10-24T16:46:39.673Z,101209.68
2017-10-24T16:49:07.141Z,101210.91
2017-10-24T16:51:34.612Z,101207.60
2017-10-24T16:54:02.060Z,101210.53
2017-10-24T16:56:29.556Z,101206.18
2017-10-24T16:58:57.025Z,101211.13
2017-10-24T17:01:24.504Z,101214.09
2017-10-24T17:03:51.986Z,101216.77
2017-10-24T17:06:19.489Z,101217.61
2017-10-24T17:08:46.940Z,101223.34
2017-10-24T17:11:14.421Z,101227.62
2017-10-24T17:13:41.884Z,101224.66
2017-10-24T17:16:09.384Z,101231.83
2017-10-24T17:18:36.888Z,101229.23
2017-10-24T17:21:04.348Z,101226.25
2017-10-24T17:23:31.826Z,101223.58
2017-10-24T17:25:59.280Z,101221.61
2017-10-24T17:28:26.780Z,101218.48
2017-10-24T17:30:54.259Z,101213.56
2017-10-24T17:33:21.751Z,101219.34
2017-10-24T17:35:49.241Z,101218.70
2017-10-24T17:38:16.747Z,101217.39
2017-10-24T17:40:44.207Z,101208.16
2017-10-24T17:43:11.692Z,101208.31
2017-10-24T17:45:39.216Z,101217.92
2017-10-24T17:48:06.773Z,101223.22
2017-10-24T17:50:34.235Z,101228.09
2017-10-24T17:53:01.740Z,101225.38
2017-10-24T17:55:29.201Z,101231.31
2017-10-24T17:57:56.665Z,101224.61
2017-10-24T18:00:24.155Z,101217.56
2017-10-24T18:02:51.619Z,101222.12
2017-10-24T18:05:19.103Z,101218.59
2017-10-24T18:07:46.565Z,101222.97
2017-10-24T18:10:14.061Z,101217.37
2017-10-24T18:12:41.537Z,101229.51
2017-10-24T18:15:09.739Z,101224.23
2017-10-24T18:17:37.268Z,101221.09
2017-10-24T18:20:04.739Z,101221.00
2017-10-24T18:22:32.321Z,101221.77
2017-10-24T18:24:59.804Z,101223.39
2017-10-24T18:27:27.260Z,101219.67
2017-10-24T18:29:54.765Z,101222.41
2017-10-24T18:32:22.228Z,101215.56
2017-10-24T18:34:49.700Z,101211.79
2017-10-24T18:37:17.196Z,101215.76
2017-10-24T18:39:44.670Z,101211.98
2017-10-24T18:42:12.256Z,101207.45
2017-10-24T18:44:39.718Z,101207.77
2017-10-24T18:47:07.201Z,101206.63
2017-10-24T18:49:34.681Z,101200.94
2017-10-24T18:52:02.177Z,101199.57
2017-10-24T18:54:29.732Z,101204.48
2017-10-24T18:56:57.229Z,101197.22
2017-10-24T18:59:24.710Z,101195.87
2017-10-24T19:01:52.188Z,101195.36
2017-10-24T19:04:19.647Z,101190.00
2017-10-24T19:06:47.124Z,101187.55
2017-10-24T19:09:14.632Z,101186.59
2017-10-24T19:11:42.151Z,101185.05
2017-10-24T19:14:09.617Z,101192.13
2017-10-24T19:16:37.075Z,101185.77
2017-10-24T19:19:04.557Z,101187.92
2017-10-24T19:21:32.066Z,101181.94
2017-10-24T19:23:59.557Z,101179.56
2017-10-24T19:26:27.024Z,101172.31
2017-10-24T19:28:54.507Z,101175.98
2017-10-24T19:31:21.972Z,101175.52
2017-10-24T19:33:49.458Z,101169.55
2017-10-24T19:36:16.933Z,101165.63
2017-10-24T19:38:44.400Z,101167.20
2017-10-24T19:41:11.916Z,101172.12
2017-10-24T19:43:39.381Z,101172.61
2017-10-24T19:46:06.929Z,101181.37
2017-10-24T19:48:34.393Z,101174.06
2017-10-24T19:51:01.899Z,101181.72
2017-10-24T19:53:29.405Z,101178.94
2017-10-24T19:55:56.887Z,101176.61
2017-10-24T19:58:24.353Z,101179.07
2017-10-24T20:00:51.836Z,101181.42
2017-10-24T20:03:19.324Z,101181.45
2017-10-24T20:05:46.942Z,101177.34
2017-10-24T20:08:14.395Z,101180.21
2017-10-24T20:10:41.900Z,101183.41
2017-10-24T20:13:09.376Z,101177.91
2017-10-24T20:15:36.850Z,101178.81
2017-10-24T20:18:04.375Z,101179.66
2017-10-24T20:20:31.845Z,101174.77
2017-10-24T20:22:59.338Z,101173.40
2017-10-24T20:25:26.795Z,101181.16
2017-10-24T20:27:54.308Z,101181.98
2017-10-24T20:30:21.889Z,101173.47
2017-10-24T20:32:49.426Z,101177.72
2017-10-24T20:35:16.888Z,101178.19
2017-10-24T20:37:44.396Z,101179.91
2017-10-24T20:40:11.897Z,101184.28
2017-10-24T20:42:39.456Z,101185.76
2017-10-24T20:45:07.278Z,101185.62
2017-10-24T20:47:34.869Z,101186.77
2017-10-24T20:50:02.444Z,101186.63
2017-10-24T20:52:29.928Z,101187.20
2017-10-24T20:54:57.395Z,101184.93
2017-10-24T20:57:24.894Z,101184.96
2017-10-24T20:59:52.384Z,101190.95
2017-10-24T21:02:19.932Z,101191.39
2017-10-24T21:04:47.485Z,101192.64
2017-10-24T21:07:14.980Z,101191.99
2017-10-24T21:09:42.436Z,101194.34
2017-10-24T21:12:11.613Z,101195.27
2017-10-24T21:14:39.086Z,101195.17
2017-10-24T21:17:06.575Z,101186.06
2017-10-24T21:19:34.048Z,101189.32
2017-10-24T21:22:01.540Z,101189.78
2017-10-24T21:24:29.008Z,101187.43
2017-10-24T21:26:56.485Z,101189.70
2017-10-24T21:29:23.992Z,101193.53
2017-10-24T21:31:51.560Z,101189.65
2017-10-24T21:34:19.112Z,101191.53
2017-10-24T21:36:46.568Z,101184.67
2017-10-24T21:39:14.081Z,101186.80
2017-10-24T21:41:41.545Z,101179.59
2017-10-24T21:44:09.053Z,101176.39
2017-10-24T21:46:36.536Z,101178.69
2017-10-24T21:49:04.017Z,101183.61
2017-10-24T21:51:31.510Z,101183.33
2017-10-24T21:53:58.983Z,101180.98
2017-10-24T21:56:26.456Z,101180.05
2017-10-24T21:58:53.941Z,101184.42
2017-10-24T22:01:21.456Z,101179.64
2017-10-24T22:03:49.000Z,101188.47
2017-10-24T22:06:16.564Z,101184.45
2017-10-24T22:08:44.050Z,101189.73
2017-10-24T22:11:11.537Z,101187.84
2017-10-24T22:13:39.026Z,101185.14
2017-10-24T22:16:06.596Z,101181.41
2017-10-24T22:18:34.088Z,101177.21
2017-10-24T22:21:01.550Z,101173.80
2017-10-24T22:23:29.033Z,101168.08
2017-10-24T22:25:56.518Z,101166.55
2017-10-24T22:28:24.009Z,101163.59
2017-10-24T22:30:51.460Z,101153.23
2017-10-24T22:33:18.944Z,101158.45
2017-10-24T22:35:46.464Z,101156.84
2017-10-24T22:38:14.005Z,101159.21
2017-10-24T22:40:41.491Z,101159.19
2017-10-24T22:43:08.985Z,101161.29
2017-10-24T22:45:36.472Z,101162.48
2017-10-24T22:48:03.952Z,101164.45
2017-10-24T22:50:31.487Z,101158.22
2017-10-24T22:52:58.961Z,101156.63
2017-10-24T22:55:26.418Z,101159.31
2017-10-24T22:57:53.966Z,101156.08
2017-10-24T23:00:21.531Z,101152.29
2017-10-24T23:02:49.084Z,101150.83
2017-10-24T23:05:16.544Z,101150.66
2017-10-24T23:07:44.024Z,101141.02
2017-10-24T23:10:11.509Z,101145.73
2017-10-24T23:12:38.989Z,101140.52
2017-10-24T23:15:06.472Z,101131.58
2017-10-24T23:17:33.952Z,101132.02
2017-10-24T23:20:01.425Z,101135.19
2017-10-24T23:22:28.944Z,101134.12
2017-10-24T23:24:56.456Z,101134.84
2017-10-24T23:27:23.908Z,101133.61
2017-10-24T23:29:51.409Z,101137.13
2017-10-24T23:32:18.966Z,101145.61
2017-10-24T23:34:46.443Z,101145.66
2017-10-24T23:37:13.980Z,101154.84
2017-10-24T23:39:41.457Z,101150.80
2017-10-24T23:42:08.930Z,101157.59
2017-10-24T23:44:36.411Z,101158.05
2017-10-24T23:47:03.881Z,101162.03
2017-10-24T23:49:31.469Z,101161.29
2017-10-24T23:51:58.945Z,101161.89
2017-10-24T23:54:26.417Z,101156.87
2017-10-24T23:56:53.864Z,101150.01
2017-10-24T23:59:21.400Z,101149.00
